createdAt,value
2022-11-27T00:01:45.126Z,76.75
2022-11-27T00:04:16.695Z,76.28
2022-11-27T00:06:46.530Z,76.26
2022-11-27T00:09:17.971Z,76.28
2022-11-27T00:11:47.790Z,75.60
2022-11-27T00:14:18.512Z,79.00
2022-11-27T00:16:48.730Z,76.26
2022-11-27T00:19:20.079Z,75.70
2022-11-27T00:21:49.736Z,74.71
2022-11-27T00:24:19.808Z,75.11
2022-11-27T00:26:49.995Z,74.91
2022-11-27T00:29:19.975Z,75.81
2022-11-27T00:31:49.836Z,77.42
2022-11-27T00:34:21.039Z,75.71
2022-11-27T00:36:50.936Z,77.10
2022-11-27T00:39:21.234Z,79.05
2022-11-27T00:41:51.431Z,77.25
2022-11-27T00:44:21.735Z,74.40
2022-11-27T00:46:51.857Z,76.20
2022-11-27T00:49:23.090Z,77.90
2022-11-27T00:51:53.999Z,77.74
2022-11-27T00:54:23.994Z,76.71
2022-11-27T00:56:53.882Z,76.79
2022-11-27T00:59:23.555Z,75.40
2022-11-27T01:01:53.401Z,73.51
2022-11-27T01:04:24.686Z,75.17
2022-11-27T01:06:54.650Z,75.47
2022-11-27T01:09:24.395Z,75.01
2022-11-27T01:11:53.816Z,75.53
2022-11-27T01:14:25.026Z,75.20
2022-11-27T01:16:55.161Z,77.28
2022-11-27T01:19:26.239Z,76.10
2022-11-27T01:21:55.850Z,74.67
2022-11-27T01:24:25.450Z,73.30
2022-11-27T01:26:55.040Z,76.74
2022-11-27T01:29:24.749Z,76.34
2022-11-27T01:31:54.435Z,76.81
2022-11-27T01:34:26.055Z,75.25
2022-11-27T01:36:55.896Z,76.33
2022-11-27T01:39:25.994Z,75.20
2022-11-27T01:41:56.280Z,74.36
2022-11-27T01:44:55.482Z,74.44
2022-11-27T01:47:35.650Z,77.70
2022-11-27T01:50:20.434Z,78.91
2022-11-27T01:52:56.037Z,79.94
2022-11-27T01:55:31.030Z,75.59
2022-11-27T01:58:03.542Z,76.43
2022-11-27T02:00:33.404Z,79.12
2022-11-27T02:03:03.569Z,76.88
2022-11-27T02:05:35.116Z,76.18
2022-11-27T02:08:08.270Z,79.52
2022-11-27T02:10:49.299Z,79.76
2022-11-27T02:13:28.156Z,80.20
2022-11-27T02:16:04.129Z,77.66
2022-11-27T02:18:41.636Z,75.93
2022-11-27T02:21:19.264Z,81.45
2022-11-27T02:24:24.533Z,77.68
2022-11-27T02:27:18.476Z,78.67
2022-11-27T02:29:51.550Z,78.89
2022-11-27T02:32:25.561Z,77.73
2022-11-27T02:35:00.375Z,75.61
2022-11-27T02:37:35.062Z,77.37
2022-11-27T02:40:09.912Z,77.35
2022-11-27T02:42:42.453Z,77.49
2022-11-27T02:45:16.868Z,77.96
2022-11-27T02:47:48.815Z,81.32
2022-11-27T02:50:21.305Z,80.22
2022-11-27T02:52:53.807Z,77.53
2022-11-27T02:55:28.399Z,77.63
2022-11-27T02:57:59.350Z,76.31
2022-11-27T03:00:31.290Z,76.23
2022-11-27T03:03:05.368Z,78.15
2022-11-27T03:05:37.475Z,76.47
2022-11-27T03:08:09.608Z,79.29
2022-11-27T03:10:45.667Z,78.15
2022-11-27T03:13:15.317Z,78.36
2022-11-27T03:15:56.999Z,76.57
2022-11-27T03:18:36.475Z,75.08
2022-11-27T03:21:11.244Z,76.29
2022-11-27T03:23:40.734Z,75.02
2022-11-27T03:26:10.170Z,80.37
2022-11-27T03:28:39.426Z,79.72
2022-11-27T03:31:10.413Z,77.37
2022-11-27T03:33:43.996Z,75.40
2022-11-27T03:36:16.385Z,77.26
2022-11-27T03:38:47.865Z,79.15
2022-11-27T03:41:21.896Z,77.85
2022-11-27T03:43:58.110Z,76.88
2022-11-27T03:46:38.684Z,75.27
2022-11-27T03:49:14.156Z,78.77
2022-11-27T03:51:50.035Z,77.98
2022-11-27T03:54:23.966Z,76.22
2022-11-27T03:56:59.546Z,76.91
2022-11-27T03:59:33.051Z,79.76
2022-11-27T04:02:07.258Z,78.24
2022-11-27T04:04:36.731Z,79.71
2022-11-27T04:07:06.337Z,77.53
2022-11-27T04:09:36.061Z,77.61
2022-11-27T04:12:05.886Z,77.94
2022-11-27T04:14:35.472Z,76.30
2022-11-27T04:17:06.791Z,78.37
2022-11-27T04:19:36.617Z,77.79
2022-11-27T04:22:06.532Z,78.05
2022-11-27T04:24:36.152Z,77.27
2022-11-27T04:27:06.236Z,77.48
2022-11-27T04:29:36.910Z,75.43
2022-11-27T04:32:08.230Z,77.97
2022-11-27T04:34:37.929Z,77.76
2022-11-27T04:37:09.288Z,76.86
2022-11-27T04:39:39.081Z,75.59
2022-11-27T04:42:08.870Z,76.70
2022-11-27T04:44:38.997Z,77.14
2022-11-27T04:47:11.290Z,81.12
2022-11-27T04:49:41.000Z,79.65
2022-11-27T04:52:12.435Z,78.51
2022-11-27T04:54:42.245Z,76.46
2022-11-27T04:57:12.079Z,77.45
2022-11-27T04:59:41.671Z,75.18
2022-11-27T05:02:12.630Z,75.98
2022-11-27T05:04:42.950Z,76.80
2022-11-27T05:07:12.802Z,76.57
2022-11-27T05:09:43.370Z,76.52
2022-11-27T05:12:12.986Z,78.77
2022-11-27T05:14:43.011Z,79.19
2022-11-27T05:17:13.943Z,76.88
2022-11-27T05:19:43.519Z,77.77
2022-11-27T05:22:13.485Z,78.45
2022-11-27T05:24:43.203Z,75.23
2022-11-27T05:27:12.834Z,77.79
2022-11-27T05:29:43.736Z,79.06
2022-11-27T05:32:15.051Z,78.88
2022-11-27T05:34:44.644Z,77.50
2022-11-27T05:37:19.506Z,78.96
2022-11-27T05:39:49.752Z,78.09
2022-11-27T05:42:19.756Z,80.18
2022-11-27T05:44:51.739Z,80.78
2022-11-27T05:47:26.714Z,75.18
2022-11-27T05:49:58.376Z,77.01
2022-11-27T05:52:27.777Z,76.74
2022-11-27T05:54:57.354Z,77.63
2022-11-27T05:57:26.870Z,76.32
2022-11-27T05:59:56.710Z,76.66
2022-11-27T06:02:29.510Z,75.58
2022-11-27T06:04:59.969Z,74.94
2022-11-27T06:07:29.658Z,79.64
2022-11-27T06:09:59.171Z,78.54
2022-11-27T06:12:29.125Z,78.25
2022-11-27T06:14:58.620Z,76.98
2022-11-27T06:17:29.925Z,77.26
2022-11-27T06:19:59.557Z,79.76
2022-11-27T06:22:29.081Z,77.87
2022-11-27T06:24:58.724Z,76.45
2022-11-27T06:27:28.399Z,77.71
2022-11-27T06:29:58.064Z,77.59
2022-11-27T06:32:29.140Z,73.11
2022-11-27T06:34:58.670Z,74.21
2022-11-27T06:37:28.564Z,77.33
2022-11-27T06:39:58.796Z,77.37
2022-11-27T06:42:31.061Z,76.49
2022-11-27T06:45:01.314Z,72.83
2022-11-27T06:47:32.462Z,75.90
2022-11-27T06:50:03.255Z,74.54
2022-11-27T06:52:38.698Z,75.41
2022-11-27T06:55:10.565Z,77.82
2022-11-27T06:57:40.627Z,76.12
2022-11-27T07:00:11.620Z,74.45
2022-11-27T07:02:42.754Z,74.36
2022-11-27T07:05:12.911Z,75.00
2022-11-27T07:07:44.054Z,75.79
2022-11-27T07:10:14.611Z,77.19
2022-11-27T07:12:44.535Z,74.79
2022-11-27T07:15:14.184Z,75.83
2022-11-27T07:17:45.411Z,74.28
2022-11-27T07:20:15.859Z,74.41
2022-11-27T07:22:45.626Z,75.28
2022-11-27T07:25:14.975Z,78.68
2022-11-27T07:27:44.427Z,75.67
2022-11-27T07:30:15.931Z,75.02
2022-11-27T07:32:46.705Z,74.21
2022-11-27T07:35:16.761Z,75.25
2022-11-27T07:37:46.388Z,74.30
2022-11-27T07:40:18.547Z,76.05
2022-11-27T07:42:48.070Z,75.41
2022-11-27T07:45:17.499Z,74.46
2022-11-27T07:48:00.299Z,72.67
2022-11-27T07:50:30.411Z,76.52
2022-11-27T07:53:01.079Z,76.03
2022-11-27T07:55:30.790Z,75.11
2022-11-27T07:58:00.364Z,74.35
2022-11-27T08:00:30.727Z,73.60
2022-11-27T08:03:03.441Z,74.64
2022-11-27T08:05:36.031Z,74.93
2022-11-27T08:08:06.705Z,76.31
2022-11-27T08:10:37.650Z,76.30
2022-11-27T08:13:08.454Z,73.34
2022-11-27T08:15:39.545Z,75.34
2022-11-27T08:18:11.230Z,73.80
2022-11-27T08:20:42.278Z,74.28
2022-11-27T08:23:12.392Z,76.14
2022-11-27T08:25:42.695Z,74.94
2022-11-27T08:28:13.054Z,75.25
2022-11-27T08:30:43.180Z,77.42
2022-11-27T08:33:15.960Z,76.94
2022-11-27T08:35:50.425Z,73.74
2022-11-27T08:38:21.050Z,74.31
2022-11-27T08:40:57.969Z,74.64
2022-11-27T08:43:28.462Z,74.71
2022-11-27T08:45:58.459Z,74.49
2022-11-27T08:48:30.680Z,74.24
2022-11-27T08:51:01.696Z,73.93
2022-11-27T08:53:32.118Z,75.27
2022-11-27T08:56:07.936Z,74.84
2022-11-27T08:58:38.672Z,75.21
2022-11-27T09:01:13.872Z,73.40
2022-11-27T09:03:46.004Z,73.80
2022-11-27T09:06:17.815Z,73.67
2022-11-27T09:08:48.933Z,73.72
2022-11-27T09:11:21.754Z,73.34
2022-11-27T09:13:52.202Z,73.90
2022-11-27T09:16:23.611Z,74.04
2022-11-27T09:18:55.620Z,75.12
2022-11-27T09:21:29.311Z,76.04
2022-11-27T09:23:59.395Z,74.59
2022-11-27T09:26:30.206Z,74.81
2022-11-27T09:29:02.761Z,73.66
2022-11-27T09:31:32.673Z,74.00
2022-11-27T09:34:04.956Z,73.86
2022-11-27T09:36:34.992Z,73.56
2022-11-27T09:39:05.324Z,72.46
2022-11-27T09:41:45.330Z,74.71
2022-11-27T09:44:39.694Z,72.58
2022-11-27T09:47:16.195Z,72.51
2022-11-27T09:49:51.056Z,73.86
2022-11-27T09:52:24.351Z,72.29
2022-11-27T09:54:57.387Z,71.75
2022-11-27T09:57:31.005Z,72.37
2022-11-27T10:00:04.380Z,74.85
2022-11-27T10:02:35.957Z,72.63
2022-11-27T10:05:14.390Z,73.88
2022-11-27T10:08:04.743Z,73.53
2022-11-27T10:10:44.912Z,74.46
2022-11-27T10:13:36.640Z,73.12
2022-11-27T10:16:10.905Z,70.35
2022-11-27T10:18:43.472Z,68.01
2022-11-27T10:21:17.710Z,68.64
2022-11-27T10:23:50.880Z,70.42
2022-11-27T10:26:21.951Z,70.34
2022-11-27T10:28:58.388Z,69.04
2022-11-27T10:31:37.070Z,66.95
2022-11-27T10:34:09.246Z,70.69
2022-11-27T10:36:43.055Z,71.12
2022-11-27T10:39:17.810Z,69.43
2022-11-27T10:41:51.594Z,69.80
2022-11-27T10:44:29.177Z,65.25
2022-11-27T10:47:03.070Z,68.06
2022-11-27T10:49:33.115Z,67.27
2022-11-27T10:52:04.590Z,64.99
2022-11-27T10:54:37.835Z,66.00
2022-11-27T10:57:56.766Z,64.18
2022-11-27T11:00:28.056Z,63.88
2022-11-27T11:03:05.611Z,63.35
2022-11-27T11:06:04.077Z,60.45
2022-11-27T11:08:29.792Z,61.46
2022-11-27T11:11:01.955Z,60.45
2022-11-27T11:13:32.950Z,61.55
2022-11-27T11:16:12.154Z,61.00
2022-11-27T11:18:46.671Z,61.17
2022-11-27T11:21:20.959Z,59.22
2022-11-27T11:23:59.148Z,60.12
2022-11-27T11:26:31.551Z,61.99
2022-11-27T11:29:03.376Z,62.56
2022-11-27T11:31:35.720Z,60.86
2022-11-27T11:34:08.127Z,60.93
2022-11-27T11:36:38.281Z,60.53
2022-11-27T11:39:19.794Z,61.35
2022-11-27T11:41:49.410Z,59.58
2022-11-27T11:44:24.296Z,59.83
2022-11-27T11:46:55.183Z,58.37
2022-11-27T11:49:27.252Z,60.05
2022-11-27T11:52:07.200Z,60.90
2022-11-27T11:54:54.633Z,60.02
2022-11-27T11:57:52.737Z,60.17
2022-11-27T12:00:30.320Z,59.83
2022-11-27T12:03:15.631Z,61.04
2022-11-27T12:06:04.205Z,61.80
2022-11-27T12:08:42.450Z,61.35
2022-11-27T12:11:16.939Z,62.01
2022-11-27T12:13:59.299Z,62.25
2022-11-27T12:16:37.236Z,63.87
2022-11-27T12:19:36.750Z,62.84
2022-11-27T12:22:13.004Z,62.89
2022-11-27T12:24:46.775Z,63.41
2022-11-27T12:27:27.159Z,61.93
2022-11-27T12:30:10.656Z,63.61
2022-11-27T12:33:06.290Z,62.66
2022-11-27T12:35:39.230Z,62.02
2022-11-27T12:38:26.833Z,62.57
2022-11-27T12:41:11.621Z,61.11
2022-11-27T12:43:44.915Z,60.06
2022-11-27T12:46:17.335Z,61.80
2022-11-27T12:48:51.511Z,62.31
2022-11-27T12:51:24.255Z,62.74
2022-11-27T12:53:57.434Z,62.77
2022-11-27T12:56:30.321Z,64.30
2022-11-27T12:59:05.927Z,60.94
2022-11-27T13:01:40.300Z,62.23
2022-11-27T13:04:20.641Z,59.79
2022-11-27T13:06:55.398Z,61.64
2022-11-27T13:09:30.935Z,61.29
2022-11-27T13:12:00.947Z,62.51
2022-11-27T13:14:33.950Z,61.37
2022-11-27T13:17:05.536Z,61.27
2022-11-27T13:19:42.090Z,61.16
2022-11-27T13:22:14.273Z,61.35
2022-11-27T13:24:44.120Z,60.14
2022-11-27T13:27:17.846Z,60.85
2022-11-27T13:29:53.625Z,61.12
2022-11-27T13:32:25.475Z,62.02
2022-11-27T13:34:57.270Z,62.76
2022-11-27T13:37:30.661Z,61.66
2022-11-27T13:40:06.649Z,61.91
2022-11-27T13:42:37.542Z,63.43
2022-11-27T13:45:19.427Z,62.10
2022-11-27T13:47:49.889Z,61.65
2022-11-27T13:50:26.919Z,62.53
2022-11-27T13:53:04.529Z,61.75
2022-11-27T13:55:36.092Z,62.02
2022-11-27T13:58:07.063Z,61.57
2022-11-27T14:00:41.687Z,61.40
2022-11-27T14:03:25.270Z,61.00
2022-11-27T14:05:55.381Z,60.68
2022-11-27T14:08:27.836Z,60.71
2022-11-27T14:11:00.406Z,60.01
2022-11-27T14:13:39.717Z,62.00
2022-11-27T14:16:24.707Z,60.52
2022-11-27T14:18:56.461Z,62.70
2022-11-27T14:21:27.931Z,64.46
2022-11-27T14:23:57.775Z,61.88
2022-11-27T14:26:27.588Z,61.96
2022-11-27T14:28:58.297Z,61.38
2022-11-27T14:31:31.457Z,59.64
2022-11-27T14:34:23.201Z,62.56
2022-11-27T14:36:54.955Z,63.03
2022-11-27T14:39:27.145Z,61.34
2022-11-27T14:42:04.199Z,64.01
2022-11-27T14:44:34.405Z,64.96
2022-11-27T14:47:08.484Z,64.25
2022-11-27T14:49:39.321Z,62.00
2022-11-27T14:52:13.589Z,63.19
2022-11-27T14:54:44.826Z,63.90
2022-11-27T14:57:19.512Z,66.37
2022-11-27T14:59:48.985Z,67.15
2022-11-27T15:02:27.606Z,67.35
2022-11-27T15:05:06.610Z,68.75
2022-11-27T15:07:45.420Z,69.85
2022-11-27T15:10:27.460Z,70.74
2022-11-27T15:12:58.230Z,70.96
2022-11-27T15:15:29.192Z,71.68
2022-11-27T15:18:02.526Z,72.09
2022-11-27T15:20:39.640Z,73.16
2022-11-27T15:23:18.365Z,72.58
2022-11-27T15:25:49.335Z,73.48
2022-11-27T15:28:29.418Z,73.96
2022-11-27T15:30:59.230Z,74.66
2022-11-27T15:33:32.381Z,73.43
2022-11-27T15:36:20.536Z,75.24
2022-11-27T15:38:54.111Z,74.55
2022-11-27T15:41:26.276Z,74.58
2022-11-27T15:43:57.065Z,73.51
2022-11-27T15:46:31.153Z,75.59
2022-11-27T15:49:03.539Z,74.52
2022-11-27T15:51:33.527Z,74.15
2022-11-27T15:54:04.021Z,74.27
2022-11-27T15:56:33.836Z,74.85
2022-11-27T15:59:04.271Z,75.56
2022-11-27T16:01:34.099Z,74.93
2022-11-27T16:04:06.456Z,75.75
2022-11-27T16:06:39.311Z,73.45
2022-11-27T16:09:09.308Z,75.99
2022-11-27T16:11:40.208Z,73.79
2022-11-27T16:14:10.750Z,71.94
2022-11-27T16:16:41.226Z,72.13
2022-11-27T16:19:15.486Z,74.67
2022-11-27T16:21:45.280Z,74.57
2022-11-27T16:24:18.759Z,75.45
2022-11-27T16:26:48.947Z,74.04
2022-11-27T16:29:18.970Z,75.79
2022-11-27T16:31:48.811Z,74.60
2022-11-27T16:34:20.654Z,75.92
2022-11-27T16:36:50.470Z,75.11
2022-11-27T16:39:20.524Z,74.51
2022-11-27T16:41:51.404Z,73.64
2022-11-27T16:44:21.420Z,74.88
2022-11-27T16:46:53.931Z,74.61
2022-11-27T16:49:25.081Z,74.31
2022-11-27T16:51:54.944Z,75.72
2022-11-27T16:54:25.313Z,74.11
2022-11-27T16:56:54.975Z,72.59
2022-11-27T16:59:24.980Z,73.39
2022-11-27T17:01:54.879Z,72.42
2022-11-27T17:04:26.095Z,72.37
2022-11-27T17:06:56.707Z,74.14
2022-11-27T17:09:31.610Z,75.33
2022-11-27T17:12:03.666Z,76.67
2022-11-27T17:14:37.357Z,77.00
2022-11-27T17:17:09.555Z,75.79
2022-11-27T17:19:41.388Z,74.39
2022-11-27T17:22:13.186Z,76.02
2022-11-27T17:24:42.922Z,76.72
2022-11-27T17:27:14.641Z,77.04
2022-11-27T17:29:44.710Z,75.85
2022-11-27T17:32:15.811Z,76.65
2022-11-27T17:34:47.265Z,73.25
2022-11-27T17:37:17.808Z,73.02
2022-11-27T17:39:48.235Z,73.86
2022-11-27T17:42:22.695Z,76.08
2022-11-27T17:44:53.077Z,75.89
2022-11-27T17:47:23.762Z,75.45
2022-11-27T17:49:55.185Z,76.48
2022-11-27T17:52:25.600Z,74.84
2022-11-27T17:54:55.950Z,73.33
2022-11-27T17:57:25.920Z,75.67
2022-11-27T17:59:55.680Z,74.57
2022-11-27T18:02:25.522Z,73.89
2022-11-27T18:04:56.735Z,73.63
2022-11-27T18:07:26.050Z,75.71
2022-11-27T18:09:57.685Z,77.04
2022-11-27T18:12:27.301Z,76.83
2022-11-27T18:15:01.279Z,76.98
2022-11-27T18:17:31.285Z,75.28
2022-11-27T18:20:03.856Z,74.64
2022-11-27T18:22:33.270Z,76.22
2022-11-27T18:25:04.752Z,76.06
2022-11-27T18:27:34.710Z,76.23
2022-11-27T18:30:05.756Z,74.15
2022-11-27T18:32:38.492Z,76.56
2022-11-27T18:35:12.715Z,76.74
2022-11-27T18:37:42.109Z,75.81
2022-11-27T18:40:15.183Z,76.48
2022-11-27T18:42:44.770Z,76.60
2022-11-27T18:45:32.206Z,75.56
2022-11-27T18:48:03.207Z,75.98
2022-11-27T18:50:34.604Z,76.08
2022-11-27T18:53:04.998Z,73.26
2022-11-27T18:55:36.087Z,75.07
2022-11-27T18:58:06.254Z,75.52
2022-11-27T19:00:36.013Z,74.45
2022-11-27T19:03:11.747Z,76.88
2022-11-27T19:05:42.877Z,76.62
2022-11-27T19:08:13.232Z,77.19
2022-11-27T19:10:43.389Z,74.71
2022-11-27T19:13:13.290Z,76.46
2022-11-27T19:15:43.151Z,77.12
2022-11-27T19:18:13.011Z,74.97
2022-11-27T19:20:45.171Z,79.50
2022-11-27T19:23:15.672Z,78.38
2022-11-27T19:25:46.892Z,75.98
2022-11-27T19:28:18.616Z,76.51
2022-11-27T19:30:48.523Z,77.46
2022-11-27T19:33:18.808Z,77.32
2022-11-27T19:35:50.214Z,78.12
2022-11-27T19:38:20.198Z,78.27
2022-11-27T19:40:49.904Z,78.50
2022-11-27T19:43:19.709Z,78.12
2022-11-27T19:45:49.879Z,77.65
2022-11-27T19:48:23.048Z,77.37
2022-11-27T19:50:55.879Z,77.32
2022-11-27T19:53:26.865Z,76.39
2022-11-27T19:55:56.876Z,77.76
2022-11-27T19:58:27.225Z,77.73
2022-11-27T20:00:56.856Z,79.52
2022-11-27T20:03:26.337Z,79.39
2022-11-27T20:06:06.630Z,79.14
2022-11-27T20:08:36.726Z,78.66
2022-11-27T20:11:07.756Z,78.71
2022-11-27T20:13:38.195Z,79.06
2022-11-27T20:16:09.754Z,78.94
2022-11-27T20:18:40.630Z,77.66
2022-11-27T20:21:16.290Z,76.60
2022-11-27T20:23:46.839Z,78.08
2022-11-27T20:26:18.870Z,75.78
2022-11-27T20:28:49.490Z,76.44
2022-11-27T20:31:27.461Z,78.16
2022-11-27T20:34:00.721Z,76.92
2022-11-27T20:36:34.394Z,76.50
2022-11-27T20:39:04.463Z,77.09
2022-11-27T20:41:34.555Z,76.61
2022-11-27T20:44:05.029Z,77.00
2022-11-27T20:46:35.455Z,78.46
2022-11-27T20:49:05.661Z,77.98
2022-11-27T20:51:37.315Z,80.82
2022-11-27T20:54:07.245Z,80.29
2022-11-27T20:56:37.135Z,77.79
2022-11-27T20:59:08.064Z,78.34
2022-11-27T21:01:38.703Z,77.96
2022-11-27T21:04:10.790Z,78.63
2022-11-27T21:06:44.373Z,76.52
2022-11-27T21:09:15.690Z,77.18
2022-11-27T21:11:46.605Z,78.83
2022-11-27T21:14:17.456Z,78.54
2022-11-27T21:16:49.271Z,79.36
2022-11-27T21:19:22.550Z,80.15
2022-11-27T21:21:54.990Z,78.27
2022-11-27T21:24:25.870Z,78.97
2022-11-27T21:26:55.661Z,80.61
2022-11-27T21:29:29.634Z,80.51
2022-11-27T21:31:59.557Z,80.50
2022-11-27T21:34:29.799Z,78.92
2022-11-27T21:37:01.511Z,79.03
2022-11-27T21:39:31.875Z,80.77
2022-11-27T21:42:02.132Z,77.49
2022-11-27T21:44:32.096Z,80.43
2022-11-27T21:47:01.799Z,80.78
2022-11-27T21:49:31.425Z,78.47
2022-11-27T21:52:02.255Z,78.33
2022-11-27T21:54:32.135Z,76.87
2022-11-27T21:57:02.316Z,76.36
2022-11-27T21:59:32.439Z,75.90
2022-11-27T22:02:02.209Z,76.33
2022-11-27T22:04:32.770Z,74.89
2022-11-27T22:07:03.653Z,74.53
2022-11-27T22:09:35.185Z,76.92
2022-11-27T22:12:05.115Z,77.38
2022-11-27T22:14:34.455Z,77.65
2022-11-27T22:17:03.769Z,78.07
2022-11-27T22:19:36.735Z,76.98
2022-11-27T22:22:08.075Z,77.18
2022-11-27T22:24:38.059Z,75.68
2022-11-27T22:27:08.613Z,75.81
2022-11-27T22:29:38.431Z,75.94
2022-11-27T22:32:08.703Z,74.05
2022-11-27T22:34:38.874Z,75.08
2022-11-27T22:37:10.505Z,74.13
2022-11-27T22:39:40.136Z,78.84
2022-11-27T22:42:10.237Z,76.29
2022-11-27T22:44:40.446Z,74.46
2022-11-27T22:47:10.691Z,75.39
2022-11-27T22:49:40.726Z,75.03
2022-11-27T22:52:12.634Z,75.97
2022-11-27T22:54:42.878Z,75.97
2022-11-27T22:57:14.135Z,76.52
2022-11-27T22:59:44.114Z,77.16
2022-11-27T23:02:13.415Z,74.61
2022-11-27T23:04:43.373Z,75.21
2022-11-27T23:07:14.786Z,74.78
2022-11-27T23:09:44.205Z,73.99
2022-11-27T23:12:14.086Z,76.26
2022-11-27T23:14:44.024Z,77.39
2022-11-27T23:17:14.099Z,75.11
2022-11-27T23:19:44.327Z,75.57
2022-11-27T23:22:15.746Z,75.28
2022-11-27T23:24:45.356Z,75.89
2022-11-27T23:27:14.999Z,76.47
2022-11-27T23:29:45.115Z,75.33
2022-11-27T23:32:14.748Z,75.26
2022-11-27T23:34:44.881Z,74.33
2022-11-27T23:37:16.191Z,75.37
2022-11-27T23:39:46.229Z,75.33
2022-11-27T23:42:15.730Z,76.70
2022-11-27T23:44:45.365Z,74.20
2022-11-27T23:47:16.516Z,76.19
2022-11-27T23:49:46.510Z,73.62
2022-11-27T23:52:18.040Z,75.43
2022-11-27T23:54:47.271Z,75.57
2022-11-27T23:57:17.116Z,78.33
2022-11-27T23:59:47.120Z,78.23
